Valley Peak, Santa Cruz Island Reserve, California Weather observations

Data are for 10 minute period ending at time listed.
 Day   Time   Solar   Ave.   Ave.  Ave.  Vector  Max.   Baro.   Total    
  of    of     Rad.   Air    Rel.  Wind   Wind   Wind  Press.  Precip.   
Year   Day            Temp.  Hum.  Speed  Dir.   Gust                    
2016   (PST)  Kw/m2    F      %     mph   deg.    mph    mb.     in.     
-------------------------------------------------------------------------
 177    2:30   0.00   62.0    60    2.0   207     3.4   961.9    0.00 
 177    2:40   0.00   62.6    58    1.1   219     4.0   961.9    0.00 
 177    2:50   0.00   63.1    55    2.5   262     6.3   961.8    0.00 
 177    3:00   0.00   67.1    46    3.7   276     6.1   961.8    0.00 
 177    3:10   0.00   66.8    50    2.8   244     4.9   961.7    0.00 
 177    3:20   0.00   62.7    62    3.4   189     5.0   961.7    0.00 
 177    3:30   0.00   59.5    89    6.2   140     8.3   961.7    0.00 
 177    3:40   0.00   58.0    95    8.1   140     9.3   961.8    0.00 
 177    3:50   0.00   57.7    98    8.0   145    10.3   961.8    0.00 
 177    4:00   0.00   57.4    98    8.5   147    11.0   961.8    0.00 
 177    4:10   0.00   57.1    98    9.3   153    12.2   961.8    0.00 
 177    4:20   0.00   56.8    98   10.0   146    12.2   961.8    0.00 
 177    4:30   0.00   56.6    99    8.0   144    12.1   961.9    0.00 
 177    4:40   0.00   56.5    99    7.7   140    12.3   962.1    0.00 
 177    4:50   0.00   56.4    99    7.9   152    12.7   962.2    0.00 
 177    5:00   0.00   56.3    99    8.8   154    11.5   962.2    0.00 
 177    5:10   0.01   56.2    99    8.7   153    11.3   962.3    0.00 
 177    5:20   0.05   55.9    99    7.3   148     9.2   962.2    0.00 
 177    5:30   0.07   56.0    99    5.9   151     7.9   962.2    0.00 
 177    5:40   0.08   56.2    99    4.1   142     5.3   962.3    0.00 
 177    5:50   0.12   56.4    99    2.8   136     3.7   962.3    0.00 
 177    6:00   0.10   56.6    98    2.9   160     4.1   962.4    0.00 
 177    6:10   0.11   56.6    98    4.0   169     6.5   962.3    0.00 
 177    6:20   0.10   57.2    98    2.9   140     5.4   962.3    0.00 
 177    6:30   0.16   57.6    97    3.8   161     7.1   962.3    0.00 
 177    6:40   0.17   57.9    96    3.4   157     6.1   962.3    0.00 
 177    6:50   0.29   58.1    95    2.5   148     6.0   962.3    0.00 
 177    7:00   0.35   59.2    91    2.3   157     5.7   962.4    0.00 
 177    7:10   0.40   60.1    85    1.2    69     3.8   962.4    0.00 
 177    7:20   0.43   63.0    78    3.3    47     6.7   962.4    0.00 
 177    7:30   0.47   65.8    72    2.8    64     7.6   962.5    0.00 
 177    7:40   0.50   65.4    75    3.3   137     6.9   962.6    0.00 
 177    7:50   0.53   64.9    76    4.1   145     7.4   962.6    0.00 
 177    8:00   0.56   64.6    76    3.6   132     7.5   962.7    0.00 
 177    8:10   0.59   65.3    75    3.3   150     6.3   962.7    0.00 
 177    8:20   0.62   66.2    73    3.7   142     7.1   962.7    0.00 
 177    8:30   0.65   65.7    74    3.8   154     7.7   962.7    0.00 
 177    8:40   0.68   66.2    74    4.1   141     8.8   962.7    0.00 
 177    8:50   0.71   67.3    71    4.8   138     8.5   962.6    0.00 
 177    9:00   0.74   68.3    69    4.7   146     8.3   962.6    0.00 
 177    9:10   0.74   68.2    69    5.5   138    10.7   962.4    0.00 
 177    9:20   0.77   67.5    71    5.1   147     9.9   962.6    0.00 
 177    9:30   0.79   66.5    74    4.7   141     8.4   962.6    0.00 
 177    9:40   0.80   67.7    71    3.8   148     8.1   962.6    0.00 
 177    9:50   0.81   68.5    69    4.2   136     7.9   962.6    0.00 
 177   10:00   0.83   69.3    67    3.0   122     7.2   962.5    0.00 
 177   10:10   0.85   70.8    64    3.8   120     7.5   962.4    0.00 
 177   10:20   0.88   71.5    63    5.0   134     9.3   962.4    0.00 
 177   10:30   0.89   70.0    66    4.5   148     9.2   962.5    0.00 
 177   10:40   0.90   71.0    64    4.6   144     8.5   962.6    0.00 
 177   10:50   0.92   71.9    62    3.7   143     8.0   962.5    0.00 
 177   11:00   0.93   73.1    60    3.1   137     8.2   962.5    0.00 
 177   11:10   0.93   72.7    61    4.4   140     9.3   962.5    0.00 
 177   11:20   0.94   72.4    62    4.3   142     8.8   962.5    0.00 
 177   11:30   0.94   72.1    62    3.9   137     9.1   962.4    0.00 
 177   11:40   0.95   73.2    60    4.3   139     9.1   962.4    0.00 
 177   11:50   0.95   72.3    62    5.0   146    10.7   962.4    0.00 
 177   12:00   0.95   71.8    63    4.2   131     9.5   962.3    0.00 
 177   12:10   0.94   73.1    61    3.2   130     7.5   962.3    0.00 
 177   12:20   0.95   73.2    61    3.8   140     7.9   962.3    0.00 
 177   12:30   0.95   73.4    61    5.1   137     9.9   962.2    0.00 
 177   12:40   0.95   73.1    61    4.1   138     9.5   962.2    0.00 
 177   12:50   0.95   73.7    60    4.2   142     7.6   962.2    0.00 
 177   13:00   0.95   76.0    56    3.1   136     5.4   962.2    0.00 
 177   13:10   0.94   76.0    57    2.7   117     6.6   962.2    0.00 
 177   13:20   0.93   78.3    52    2.5   101     6.1   962.2    0.00 
 177   13:30   0.91   77.3    54    3.6   109     7.2   962.3    0.00 
 177   13:40   0.90   76.6    55    4.0   109     8.2   962.2    0.00 
 177   13:50   0.88   76.6    55    3.8    78     6.4   962.1    0.00 
 177   14:00   0.87   76.8    54    3.3    50     6.0   962.0    0.00 
 177   14:10   0.85   77.1    53    2.5    75     4.8   962.1    0.00 
 177   14:20   0.83   76.8    54    3.7    78     7.0   962.0    0.00 
 177   14:30   0.80   78.5    52    3.2    91     6.4   962.0    0.00 
 177   14:40   0.78   77.0    54    3.3   128     7.2   962.0    0.00 
 177   14:50   0.75   74.5    59    4.0   130     8.7   961.9    0.00 
 177   15:00   0.73   74.2    59    3.1   125     7.3   961.7    0.00 
 177   15:10   0.70   73.9    60    4.4   131     8.0   961.8    0.00 
 177   15:20   0.67   73.3    61    2.4   123     5.6   961.6    0.00 
 177   15:30   0.65   75.0    57    3.1    34     6.2   961.6    0.00 
 177   15:40   0.61   75.8    56    3.2    32     6.8   961.5    0.00 
 177   15:50   0.59   76.4    54    3.1    23     7.8   961.5    0.00 
 177   16:00   0.56   75.9    55    2.2    43     5.9   961.5    0.00 
 177   16:10   0.53   77.6    52    3.3    40     5.7   961.6    0.00 
 177   16:20   0.49   77.5    52    3.2    31     5.5   961.5    0.00 
 177   16:30   0.46   76.7    52    3.8    24     6.3   961.4    0.00 
 177   16:40   0.42   75.2    54    4.9    11    10.4   961.3    0.00 
 177   16:50   0.39   74.6    55    4.8    16     7.5   961.2    0.00 
 177   17:00   0.36   74.6    54    4.1     6     7.4   961.0    0.00 
 177   17:10   0.33   76.4    50    3.5    13     5.8   961.2    0.00 
 177   17:20   0.29   78.3    47    2.7    35     7.7   961.2    0.00 
 177   17:30   0.26   76.5    47    5.8   352    10.2   961.1    0.00 
 177   17:40   0.23   74.9    48    5.3   341     9.7   961.0    0.00 
 177   17:50   0.19   74.9    48    4.8   332     8.3   960.9    0.00 
 177   18:00   0.16   75.3    50    2.8   329     5.1   960.9    0.00 
 177   18:10   0.13   75.7    51    1.3   288     4.9   960.9    0.00 
 177   18:20   0.10   75.2    52    2.2   294     4.7   960.9    0.00 
 177   18:30   0.08   74.0    55    1.5   143     4.0   960.9    0.00 
 177   18:40   0.06   73.5    51    2.2   299     5.6   960.9    0.00 
 177   18:50   0.04   74.1    49    3.2   302     6.3   960.9    0.00 
 177   19:00   0.02   73.3    48    5.3   308    10.4   961.0    0.00 
 177   19:10   0.01   72.2    49    5.6   305     9.1   960.9    0.00 
 177   19:20   0.00   71.7    49    4.2   302     7.2   960.9    0.00 
 177   19:30   0.00   71.9    48    4.6   301    10.8   960.9    0.00 
 177   19:40   0.00   72.0    47    4.8   305     8.2   961.0    0.00 
 177   19:50   0.00   71.9    46    5.3   314     9.4   961.1    0.00 
 177   20:00   0.00   72.0    46    3.4   307     5.8   961.2    0.00 
 177   20:10   0.00   71.6    48    2.6   314     5.2   961.3    0.00 
 177   20:20   0.00   69.9    52    2.3   299     5.5   961.4    0.00 
 177   20:30   0.00   68.6    58    1.0   244     3.1   961.5    0.00 
 177   20:40   0.00   67.6    59    1.5   199     4.2   961.5    0.00 
 177   20:50   0.00   68.1    57    2.6   176     5.3   961.6    0.00 
 177   21:00   0.00   68.2    58    3.9   157     5.3   961.7    0.00 
 177   21:10   0.00   68.4    57    3.4   167     4.9   961.8    0.00 
 177   21:20   0.00   68.7    56    3.5   178     4.5   961.9    0.00 
 177   21:30   0.00   68.9    56    3.2   170     5.3   961.9    0.00 
 177   21:40   0.00   67.8    60    4.0   148     6.1   962.0    0.00 
 177   21:50   0.00   67.5    59    3.3   150     5.9   962.1    0.00 
 177   22:00   0.00   67.4    60    3.6   150     5.4   962.2    0.00 
 177   22:10   0.00   67.7    59    4.8   159     5.5   962.3    0.00 
 177   22:20   0.00   66.9    62    4.5   161     5.3   962.2    0.00 
 177   22:30   0.00   66.1    66    4.9   149     6.4   962.3    0.00 
 177   22:40   0.00   66.1    65    5.3   142     7.1   962.4    0.00 
 177   22:50   0.00   65.4    69    7.7   137     9.6   962.4    0.00 
 177   23:00   0.00   64.7    71    9.1   137     9.9   962.4    0.00 
 177   23:10   0.00   62.7    77    8.4   136    10.0   962.4    0.00 
 177   23:20   0.00   61.5    81    8.4   133     9.6   962.4    0.00 
 177   23:30   0.00   61.2    83    9.2   124    10.4   962.4    0.00 
 177   23:40   0.00   61.1    86    9.1   125    11.0   962.5    0.00 
 177   23:50   0.00   60.6    89    9.8   128    11.2   962.6    0.00 
 178    0:00   0.00   60.2    90    9.2   123    11.2   962.6    0.00 
 178    0:10   0.00   60.1    91    9.0   127    11.0   962.7    0.00 
 178    0:20   0.00   59.6    91    8.8   128    11.4   962.6    0.00 
 178    0:30   0.00   59.4    92    9.4   119    11.8   962.6    0.00 
 178    0:40   0.00   59.5    89   10.4   112    12.6   962.5    0.00 
 178    0:50   0.00   59.8    88   10.3   108    13.2   962.4    0.00 
 178    1:00   0.00   59.9    87    9.7   111    12.1   962.4    0.00 
 178    1:10   0.00   59.7    88    8.4   108    11.8   962.3    0.00 
 178    1:20   0.00   60.3    87    8.1   115    10.2   962.2    0.00 
 178    1:30   0.00   60.1    88    8.4   114    10.3   962.2    0.00 
 178    1:40   0.00   60.4    86    5.6   101     9.1   962.2    0.00 
 178    1:50   0.00   61.1    80    2.7   102     4.3   962.2    0.00 
 178    2:00   0.00   62.2    73    4.0   108     5.6   962.1    0.00 
 178    2:10   0.00   62.9    70    3.6    80     5.6   962.1    0.00 
 178    2:20   0.00   64.0    65    3.4    52     4.1   962.1    0.00 

Return to Valley Peak, Santa Cruz Island Reserve graphs page.


Western Regional Climate Center,wrcc@dri.edu